Time;durP1;ratioP1;P1;durP2;ratioP2;P2;SDS_P1;SDS_P2;PMS_P1;PMS_P2;Temp;Humidity;BMP_temperature;BMP_pressure;BME280_temperature;BME280_humidity;BME280_pressure;Samples;Min_cycle;Max_cycle;Signal;HPM_P1;HPM_P2
2021/12/30 00:02:26;;;;;;;43.53;8.50;;;10.80;99.90;;;;;;5032767;28;20036;-73
2021/12/30 00:04:52;;;;;;;53.85;9.75;;;10.80;99.90;;;;;;5031277;28;20045;-73
2021/12/30 00:07:17;;;;;;;47.05;7.90;;;10.80;99.90;;;;;;5032840;28;20025;-73
2021/12/30 00:09:45;;;;;;;46.15;8.60;;;10.80;99.90;;;;;;5031301;28;20029;-73
2021/12/30 00:12:11;;;;;;;44.60;8.48;;;10.90;99.90;;;;;;5032316;28;20128;-73
2021/12/30 00:14:37;;;;;;;45.47;8.32;;;10.90;99.90;;;;;;5032521;28;20121;-73
2021/12/30 00:17:03;;;;;;;40.60;7.70;;;11.00;99.90;;;;;;5032488;28;20030;-73
2021/12/30 00:19:29;;;;;;;36.67;8.00;;;11.00;99.90;;;;;;5032349;28;20032;-73
2021/12/30 00:21:55;;;;;;;35.63;6.75;;;11.00;99.90;;;;;;5032701;28;20117;-73
2021/12/30 00:24:21;;;;;;;45.15;7.97;;;11.10;99.90;;;;;;5032421;28;20591;-73
2021/12/30 00:26:47;;;;;;;50.72;7.72;;;11.10;99.90;;;;;;5031972;28;20030;-72
2021/12/30 00:29:12;;;;;;;45.17;8.20;;;11.10;99.90;;;;;;5032432;28;20478;-73
2021/12/30 00:31:38;;;;;;;42.65;7.72;;;11.20;99.90;;;;;;5032440;28;20370;-73
2021/12/30 00:34:04;;;;;;;48.08;8.23;;;11.20;99.90;;;;;;5032302;28;20059;-73
2021/12/30 00:36:29;;;;;;;46.80;8.35;;;11.20;99.90;;;;;;5032305;28;20021;-73
2021/12/30 00:38:55;;;;;;;43.47;7.47;;;11.20;99.90;;;;;;5031967;28;20069;-73
2021/12/30 00:41:21;;;;;;;52.60;8.52;;;11.10;99.90;;;;;;5031952;28;20057;-74
2021/12/30 00:43:48;;;;;;;48.10;7.72;;;11.20;99.90;;;;;;5032238;28;20065;-73
2021/12/30 00:46:14;;;;;;;34.25;7.25;;;11.20;99.90;;;;;;5032221;28;20034;-73
2021/12/30 00:48:41;;;;;;;44.83;7.72;;;11.20;99.90;;;;;;5032119;28;20026;-73
2021/12/30 00:51:07;;;;;;;39.30;8.05;;;11.20;99.90;;;;;;5032273;28;20465;-73
2021/12/30 00:53:33;;;;;;;37.13;7.50;;;11.20;99.90;;;;;;5030630;28;20120;-73
2021/12/30 00:55:59;;;;;;;40.40;7.50;;;11.30;99.90;;;;;;5032000;28;20478;-73
2021/12/30 00:58:25;;;;;;;38.53;8.55;;;11.30;99.90;;;;;;5031842;28;20504;-73
2021/12/30 01:00:53;;;;;;;43.35;8.18;;;11.30;99.90;;;;;;5030680;28;20032;-73
2021/12/30 01:03:18;;;;;;;39.28;7.00;;;11.30;99.90;;;;;;5034281;28;20534;-73
2021/12/30 01:05:45;;;;;;;45.50;8.48;;;11.30;99.90;;;;;;5036020;28;20226;-73
2021/12/30 01:08:12;;;;;;;51.85;8.25;;;11.40;99.90;;;;;;5035909;28;20324;-73
2021/12/30 01:10:38;;;;;;;45.85;8.90;;;11.40;99.90;;;;;;5035606;28;20026;-73
2021/12/30 01:13:07;;;;;;;52.85;9.88;;;11.40;99.90;;;;;;5035382;28;20053;-73
2021/12/30 01:18:43;;;;;;;51.53;7.70;;;11.50;99.90;;;;;;5035681;28;20037;-73
2021/12/30 01:21:11;;;;;;;44.85;8.02;;;11.60;99.90;;;;;;5034281;28;20465;-73
2021/12/30 01:23:41;;;;;;;58.90;9.88;;;11.60;99.90;;;;;;5035378;28;20029;-73
2021/12/30 01:26:07;;;;;;;47.97;7.90;;;11.70;99.90;;;;;;5035560;28;20455;-73
2021/12/30 01:28:33;;;;;;;51.38;8.93;;;11.70;99.90;;;;;;5035433;28;20030;-73
2021/12/30 01:31:00;;;;;;;57.45;9.13;;;11.70;99.90;;;;;;5035551;28;20032;-73
2021/12/30 01:33:26;;;;;;;62.10;10.93;;;11.80;99.90;;;;;;5035541;28;20363;-73
2021/12/30 01:35:52;;;;;;;46.35;7.15;;;11.80;99.90;;;;;;5034981;28;20080;-73
2021/12/30 01:38:18;;;;;;;49.45;7.90;;;11.90;99.90;;;;;;5035211;28;20061;-73
2021/12/30 01:40:49;;;;;;;53.47;8.80;;;11.90;99.90;;;;;;5035261;28;20033;-73
2021/12/30 01:43:15;;;;;;;40.97;7.95;;;11.90;99.90;;;;;;5033534;28;20052;-73
2021/12/30 01:45:43;;;;;;;44.88;7.55;;;12.00;99.90;;;;;;5034683;28;20049;-73
2021/12/30 01:48:09;;;;;;;43.85;9.07;;;11.90;99.90;;;;;;5034822;28;20029;-73
2021/12/30 01:50:36;;;;;;;44.50;7.10;;;12.00;99.90;;;;;;5035337;28;20029;-73
2021/12/30 01:53:03;;;;;;;37.67;7.45;;;12.00;99.90;;;;;;5034929;28;20017;-73
2021/12/30 01:55:31;;;;;;;44.05;8.35;;;12.00;99.90;;;;;;5033547;28;20402;-73
2021/12/30 01:57:57;;;;;;;42.60;6.57;;;12.00;99.90;;;;;;5035319;28;20026;-73
2021/12/30 02:00:25;;;;;;;39.67;5.93;;;12.00;99.90;;;;;;5034740;28;20026;-73
2021/12/30 02:02:51;;;;;;;32.50;7.03;;;12.00;99.90;;;;;;5035111;28;20120;-73
2021/12/30 02:05:17;;;;;;;31.65;5.18;;;12.00;99.90;;;;;;5034516;28;20041;-73
2021/12/30 02:07:43;;;;;;;33.97;7.43;;;12.00;99.90;;;;;;5034541;28;20064;-73
2021/12/30 02:10:13;;;;;;;37.58;6.07;;;12.00;99.90;;;;;;5033249;28;20541;-73
2021/12/30 02:12:40;;;;;;;35.40;6.45;;;11.90;99.90;;;;;;5034111;28;20102;-73
2021/12/30 02:15:10;;;;;;;35.85;6.50;;;12.00;99.90;;;;;;5034193;28;20036;-73
2021/12/30 02:17:36;;;;;;;32.00;7.38;;;12.00;99.90;;;;;;5034502;28;20029;-73
2021/12/30 02:20:06;;;;;;;39.92;6.95;;;12.00;99.90;;;;;;5034444;28;20025;-73
2021/12/30 02:22:31;;;;;;;31.48;7.22;;;11.90;99.90;;;;;;5034016;28;20033;-73
2021/12/30 02:24:59;;;;;;;35.97;6.72;;;12.00;99.90;;;;;;5034236;28;20044;-73
2021/12/30 02:27:26;;;;;;;26.45;7.13;;;12.00;99.90;;;;;;5033842;28;20084;-73
2021/12/30 02:29:52;;;;;;;23.80;5.70;;;12.00;99.90;;;;;;5034257;28;20068;-73
2021/12/30 02:32:21;;;;;;;26.70;5.93;;;12.10;99.90;;;;;;5034150;28;20045;-72
2021/12/30 02:34:47;;;;;;;24.45;6.38;;;12.10;99.90;;;;;;5034287;28;20022;-72
2021/12/30 02:37:16;;;;;;;22.05;6.78;;;12.10;99.90;;;;;;5033995;28;20467;-72
2021/12/30 02:39:45;;;;;;;27.02;5.50;;;12.10;99.90;;;;;;5034102;28;20031;-72
2021/12/30 02:42:11;;;;;;;25.20;6.65;;;12.10;99.90;;;;;;5034033;28;20022;-72
2021/12/30 02:44:36;;;;;;;30.10;7.05;;;12.10;99.90;;;;;;5033907;28;20060;-74
2021/12/30 02:47:02;;;;;;;21.63;5.80;;;12.10;99.90;;;;;;5034222;28;20033;-74
2021/12/30 02:49:29;;;;;;;27.77;6.57;;;12.00;99.90;;;;;;5033985;28;20435;-72
2021/12/30 02:51:54;;;;;;;29.98;7.50;;;12.00;99.90;;;;;;5034132;28;20033;-74
2021/12/30 02:54:20;;;;;;;23.25;5.68;;;12.10;99.90;;;;;;5034140;28;20029;-74
2021/12/30 02:56:49;;;;;;;29.25;6.78;;;12.00;99.90;;;;;;5033181;28;20029;-74
2021/12/30 02:59:18;;;;;;;31.55;6.78;;;11.90;99.90;;;;;;5033858;28;20112;-74
2021/12/30 03:01:44;;;;;;;26.52;7.07;;;11.90;99.90;;;;;;5033698;28;20067;-74
2021/12/30 03:04:12;;;;;;;24.13;6.53;;;11.90;99.90;;;;;;5032455;28;20029;-74
2021/12/30 03:06:38;;;;;;;28.77;7.07;;;11.90;99.90;;;;;;5033772;28;20025;-74
2021/12/30 03:09:04;;;;;;;20.55;5.75;;;11.90;99.90;;;;;;5033031;28;20079;-74
2021/12/30 03:11:30;;;;;;;23.70;5.70;;;11.90;99.90;;;;;;5033430;28;20029;-73
2021/12/30 03:13:56;;;;;;;29.13;6.82;;;11.90;99.90;;;;;;5033212;28;20528;-74
2021/12/30 03:16:28;;;;;;;27.60;7.70;;;11.90;99.90;;;;;;5033246;28;20021;-73
2021/12/30 03:18:53;;;;;;;28.10;6.93;;;11.90;99.90;;;;;;5032107;28;20033;-73
2021/12/30 03:21:21;;;;;;;25.73;6.28;;;11.90;99.90;;;;;;5031953;28;20736;-74
2021/12/30 03:23:48;;;;;;;29.35;6.95;;;11.90;99.90;;;;;;5031622;28;20030;-73
2021/12/30 03:26:14;;;;;;;28.77;7.45;;;11.80;99.90;;;;;;5032147;28;20029;-74
2021/12/30 03:28:40;;;;;;;30.40;6.53;;;11.90;99.90;;;;;;5033131;28;20856;-74
2021/12/30 03:31:11;;;;;;;33.92;6.35;;;11.80;99.90;;;;;;5031785;28;20069;-73
2021/12/30 03:33:37;;;;;;;32.78;7.07;;;11.80;99.90;;;;;;5033426;28;20040;-73
2021/12/30 03:36:05;;;;;;;27.52;7.25;;;11.80;99.90;;;;;;5032987;28;20026;-73
2021/12/30 03:38:34;;;;;;;28.55;5.57;;;11.80;99.90;;;;;;5032929;28;20029;-73
2021/12/30 03:41:00;;;;;;;27.65;7.20;;;11.80;99.90;;;;;;5032516;28;20482;-74
2021/12/30 03:43:27;;;;;;;33.10;7.82;;;11.90;99.90;;;;;;5032747;28;20112;-73
2021/12/30 03:45:53;;;;;;;19.85;5.75;;;11.90;99.90;;;;;;5032998;28;20549;-73
2021/12/30 03:48:19;;;;;;;29.38;6.68;;;11.90;99.90;;;;;;5032932;28;20061;-73
2021/12/30 03:50:45;;;;;;;28.88;7.03;;;11.90;99.90;;;;;;5032639;28;20053;-74
2021/12/30 03:53:15;;;;;;;30.95;7.30;;;11.90;99.90;;;;;;5032841;28;20068;-74
2021/12/30 03:55:43;;;;;;;27.70;6.63;;;11.90;99.90;;;;;;5032742;28;20022;-74
2021/12/30 03:58:09;;;;;;;33.70;7.97;;;11.90;99.90;;;;;;5031270;28;20140;-73
2021/12/30 04:00:37;;;;;;;31.70;8.15;;;11.90;99.90;;;;;;5032666;28;20566;-73
2021/12/30 04:03:03;;;;;;;29.27;6.70;;;11.90;99.90;;;;;;5032660;28;20048;-74
2021/12/30 04:05:29;;;;;;;25.00;5.15;;;11.90;99.90;;;;;;5030998;28;20463;-74
2021/12/30 04:07:55;;;;;;;31.50;6.57;;;11.90;99.90;;;;;;5032576;28;20028;-74
2021/12/30 04:10:22;;;;;;;26.63;6.53;;;11.90;99.90;;;;;;5032669;28;20025;-73
2021/12/30 04:12:49;;;;;;;36.38;8.15;;;11.90;99.90;;;;;;5032418;28;20065;-73
2021/12/30 04:15:15;;;;;;;26.88;6.82;;;11.90;99.90;;;;;;5032758;28;20036;-74
2021/12/30 04:17:43;;;;;;;32.40;6.70;;;11.90;99.90;;;;;;5032678;28;20112;-73
2021/12/30 04:20:11;;;;;;;21.17;6.70;;;11.90;99.90;;;;;;5031996;28;20075;-74
2021/12/30 04:22:38;;;;;;;36.08;7.10;;;11.90;99.90;;;;;;5032428;28;20074;-74
2021/12/30 04:25:07;;;;;;;24.88;6.28;;;11.90;99.90;;;;;;5032356;28;20096;-74
2021/12/30 04:27:32;;;;;;;27.90;6.50;;;11.90;99.90;;;;;;5032361;28;20459;-73
2021/12/30 04:29:58;;;;;;;29.63;7.60;;;11.90;99.90;;;;;;5032292;28;20034;-74
2021/12/30 04:32:24;;;;;;;29.20;5.95;;;11.90;99.90;;;;;;5032384;28;20030;-73
2021/12/30 04:34:50;;;;;;;32.53;6.80;;;11.90;99.90;;;;;;5032503;28;20068;-73
2021/12/30 04:37:15;;;;;;;33.20;6.63;;;11.90;99.90;;;;;;5034760;28;20048;-73
2021/12/30 04:39:41;;;;;;;24.98;5.78;;;11.90;99.90;;;;;;5035998;28;20029;-74
2021/12/30 04:42:07;;;;;;;32.17;6.63;;;12.00;99.90;;;;;;5036323;28;20026;-74
2021/12/30 04:44:33;;;;;;;31.65;6.90;;;12.00;99.90;;;;;;5035857;28;20029;-73
2021/12/30 04:46:59;;;;;;;30.60;7.43;;;12.10;99.90;;;;;;5036137;28;20040;-74
2021/12/30 04:49:26;;;;;;;33.92;6.70;;;12.10;99.90;;;;;;5036190;28;20108;-73
2021/12/30 04:51:52;;;;;;;31.20;6.15;;;12.10;99.90;;;;;;5036082;28;20052;-73
2021/12/30 04:54:18;;;;;;;25.73;5.78;;;12.10;99.90;;;;;;5036442;28;20029;-74
2021/12/30 04:56:44;;;;;;;34.67;5.63;;;12.00;99.90;;;;;;5035990;28;20047;-74
2021/12/30 04:59:10;;;;;;;30.10;5.53;;;12.00;99.90;;;;;;5035918;28;20029;-74
2021/12/30 05:01:38;;;;;;;26.58;5.53;;;12.00;99.90;;;;;;5034093;28;20033;-74
2021/12/30 05:04:04;;;;;;;31.42;5.35;;;12.00;99.90;;;;;;5036034;28;20120;-73
2021/12/30 05:06:31;;;;;;;33.22;4.82;;;12.00;99.90;;;;;;5036008;28;20112;-73
2021/12/30 05:08:57;;;;;;;26.13;4.32;;;12.10;99.90;;;;;;5035762;28;20451;-73
2021/12/30 05:11:23;;;;;;;34.03;5.55;;;12.10;99.90;;;;;;5035671;28;20029;-73
2021/12/30 05:13:48;;;;;;;24.08;4.05;;;12.10;99.90;;;;;;5035630;28;20045;-74
2021/12/30 05:16:15;;;;;;;30.52;4.45;;;12.10;99.90;;;;;;5035063;28;20378;-73
2021/12/30 05:18:43;;;;;;;29.17;4.50;;;12.10;99.90;;;;;;5034151;28;20469;-73
2021/12/30 05:21:10;;;;;;;36.85;5.25;;;12.10;99.90;;;;;;5035539;28;20132;-73
2021/12/30 05:23:36;;;;;;;29.58;4.15;;;12.10;99.90;;;;;;5035418;28;20374;-73
2021/12/30 05:26:02;;;;;;;22.70;3.90;;;12.10;99.90;;;;;;5035380;28;20052;-74
2021/12/30 05:28:28;;;;;;;33.20;4.82;;;12.00;99.90;;;;;;5035599;28;20056;-73
2021/12/30 05:30:55;;;;;;;25.67;4.07;;;12.00;99.90;;;;;;5035184;28;20026;-74
2021/12/30 05:33:20;;;;;;;25.55;3.67;;;12.00;99.90;;;;;;5035322;28;20025;-73
2021/12/30 05:35:46;;;;;;;23.42;4.22;;;12.00;99.90;;;;;;5035488;28;20036;-73
2021/12/30 05:38:14;;;;;;;25.70;4.45;;;12.00;99.90;;;;;;5034012;28;20025;-74
2021/12/30 05:40:40;;;;;;;25.73;4.72;;;12.00;99.90;;;;;;5035249;28;20443;-73
2021/12/30 05:43:05;;;;;;;33.33;6.07;;;12.00;99.90;;;;;;5035131;28;20064;-73
2021/12/30 05:45:31;;;;;;;32.92;5.13;;;12.00;99.90;;;;;;5034765;28;20037;-74
2021/12/30 05:47:57;;;;;;;27.42;5.82;;;12.00;99.90;;;;;;5034278;28;20032;-74
2021/12/30 05:50:28;;;;;;;27.73;5.43;;;11.90;99.90;;;;;;5035286;28;20033;-74
2021/12/30 05:52:53;;;;;;;28.70;5.90;;;11.90;99.90;;;;;;5034947;28;20022;-74
2021/12/30 05:55:19;;;;;;;26.35;5.78;;;11.90;99.90;;;;;;5035129;28;20030;-74
2021/12/30 05:57:45;;;;;;;24.13;4.47;;;11.90;99.90;;;;;;5035075;28;20474;-74
2021/12/30 06:00:15;;;;;;;29.48;6.88;;;11.90;99.90;;;;;;5034888;28;20025;-74
2021/12/30 06:02:41;;;;;;;30.95;6.43;;;12.00;99.90;;;;;;5035290;28;20048;-74
2021/12/30 06:05:07;;;;;;;29.15;6.50;;;11.90;99.90;;;;;;5035002;28;20041;-74
2021/12/30 06:07:33;;;;;;;32.92;6.22;;;11.90;99.90;;;;;;5034611;28;20034;-74
2021/12/30 06:09:58;;;;;;;29.42;5.07;;;11.90;99.90;;;;;;5035025;28;20029;-74
2021/12/30 06:12:24;;;;;;;33.30;4.50;;;11.90;99.90;;;;;;5034663;28;20029;-74
2021/12/30 06:14:50;;;;;;;28.42;5.45;;;11.90;99.90;;;;;;5034734;28;20177;-74
2021/12/30 06:17:15;;;;;;;24.27;4.15;;;12.00;99.90;;;;;;5034681;28;20487;-74
2021/12/30 06:19:42;;;;;;;30.20;5.07;;;12.00;99.90;;;;;;5034808;28;20025;-73
2021/12/30 06:22:09;;;;;;;20.55;4.60;;;12.00;99.90;;;;;;5033295;28;20124;-74
2021/12/30 06:24:35;;;;;;;22.55;4.50;;;12.10;99.90;;;;;;5034682;28;20116;-73
2021/12/30 06:27:00;;;;;;;28.23;5.13;;;12.10;99.90;;;;;;5034306;28;20550;-74
2021/12/30 06:29:26;;;;;;;31.20;5.07;;;12.10;99.90;;;;;;5034501;28;20030;-74
2021/12/30 06:31:52;;;;;;;26.15;4.85;;;12.10;99.90;;;;;;5034552;28;20041;-74
2021/12/30 06:34:17;;;;;;;27.15;4.75;;;12.10;99.90;;;;;;5034693;28;20038;-74
2021/12/30 06:36:43;;;;;;;21.13;3.53;;;12.10;99.90;;;;;;5034378;28;20068;-74
2021/12/30 06:39:09;;;;;;;25.27;4.50;;;12.20;99.90;;;;;;5034552;28;20029;-74
2021/12/30 06:41:34;;;;;;;28.33;4.55;;;12.20;99.90;;;;;;5034048;28;20071;-74
2021/12/30 06:44:00;;;;;;;24.98;4.10;;;12.20;99.90;;;;;;5034084;28;20375;-74
2021/12/30 06:46:26;;;;;;;29.35;4.30;;;12.20;99.90;;;;;;5034467;28;20033;-73
2021/12/30 06:48:51;;;;;;;27.67;4.20;;;12.20;99.90;;;;;;5034055;28;20462;-73
2021/12/30 06:51:19;;;;;;;23.92;4.03;;;12.30;99.90;;;;;;5034135;28;20115;-73
2021/12/30 06:53:45;;;;;;;21.40;3.80;;;12.20;99.90;;;;;;5034105;28;20032;-74
2021/12/30 06:56:12;;;;;;;25.25;3.25;;;12.30;99.90;;;;;;5033400;28;20386;-74
2021/12/30 06:58:38;;;;;;;23.17;4.32;;;12.30;99.90;;;;;;5033959;28;20434;-73
2021/12/30 07:01:04;;;;;;;21.75;3.58;;;12.30;99.90;;;;;;5033605;28;20102;-73
2021/12/30 07:03:30;;;;;;;26.08;4.30;;;12.30;99.90;;;;;;5033835;28;20025;-74
2021/12/30 07:05:55;;;;;;;19.02;3.20;;;12.40;99.90;;;;;;5033736;28;20041;-74
2021/12/30 07:08:22;;;;;;;22.33;3.47;;;12.40;99.90;;;;;;5033860;28;20026;-73
2021/12/30 07:10:48;;;;;;;16.10;2.83;;;12.40;99.90;;;;;;5033761;28;20029;-74
2021/12/30 07:13:13;;;;;;;25.80;3.35;;;12.40;99.90;;;;;;5033342;28;20053;-73
2021/12/30 07:15:39;;;;;;;22.08;3.08;;;12.40;99.90;;;;;;5032240;28;20083;-73
2021/12/30 07:18:05;;;;;;;19.98;3.55;;;12.40;99.90;;;;;;5033192;28;20030;-73
2021/12/30 07:20:30;;;;;;;21.90;3.95;;;12.50;99.90;;;;;;5033526;28;20451;-74
2021/12/30 07:22:56;;;;;;;22.48;4.07;;;12.50;99.90;;;;;;5033287;28;20029;-74
2021/12/30 07:25:22;;;;;;;17.20;4.03;;;12.40;99.90;;;;;;5033085;28;20037;-74
2021/12/30 07:27:51;;;;;;;21.33;4.05;;;12.40;99.90;;;;;;5033124;28;20394;-74
2021/12/30 07:30:19;;;;;;;21.48;4.18;;;12.50;99.90;;;;;;5033118;28;20022;-74
2021/12/30 07:32:45;;;;;;;23.02;5.35;;;12.40;99.90;;;;;;5033360;28;20117;-74
2021/12/30 07:35:11;;;;;;;21.95;4.82;;;12.50;99.90;;;;;;5032844;28;20081;-73
2021/12/30 07:37:36;;;;;;;20.45;4.78;;;12.50;99.90;;;;;;5033344;28;20033;-74
2021/12/30 07:40:03;;;;;;;23.13;5.00;;;12.50;99.90;;;;;;5031369;28;20406;-73
2021/12/30 07:42:29;;;;;;;23.77;5.05;;;12.40;99.90;;;;;;5033134;28;20466;-72
2021/12/30 07:44:54;;;;;;;26.75;5.55;;;12.40;99.90;;;;;;5032925;28;20045;-73
2021/12/30 07:47:20;;;;;;;27.35;5.78;;;12.40;99.90;;;;;;5031814;28;20485;-73
2021/12/30 07:49:47;;;;;;;28.35;5.70;;;12.40;99.90;;;;;;5032510;28;20228;-73
2021/12/30 07:52:13;;;;;;;27.92;5.07;;;12.30;99.90;;;;;;5032887;28;20037;-73
2021/12/30 07:54:38;;;;;;;30.13;6.35;;;12.30;99.90;;;;;;5032515;28;20099;-73
2021/12/30 07:57:04;;;;;;;21.83;5.38;;;12.30;99.90;;;;;;5032355;28;20510;-73
2021/12/30 07:59:30;;;;;;;28.13;6.07;;;12.20;99.90;;;;;;5032594;28;20033;-73
2021/12/30 08:01:56;;;;;;;36.38;6.60;;;12.10;99.90;;;;;;5032525;28;20179;-73
2021/12/30 08:04:22;;;;;;;31.10;6.80;;;12.10;99.90;;;;;;5031100;28;20048;-73
2021/12/30 08:06:47;;;;;;;32.30;6.18;;;12.00;99.90;;;;;;5032605;28;20057;-73
2021/12/30 08:09:13;;;;;;;30.98;5.90;;;12.00;99.90;;;;;;5032146;28;20386;-73
2021/12/30 08:11:40;;;;;;;35.35;6.22;;;12.00;99.90;;;;;;5031442;28;20029;-73
2021/12/30 08:14:05;;;;;;;34.47;6.60;;;11.90;99.90;;;;;;5032235;28;20054;-73
2021/12/30 08:16:31;;;;;;;34.30;6.57;;;11.90;99.90;;;;;;5032156;28;20108;-73
2021/12/30 08:18:58;;;;;;;35.42;5.90;;;11.90;99.90;;;;;;5032329;28;20036;-73
2021/12/30 08:21:24;;;;;;;26.50;6.78;;;11.90;99.90;;;;;;5030968;28;20041;-72
2021/12/30 08:23:51;;;;;;;28.25;6.13;;;11.90;99.90;;;;;;5031929;28;20375;-73
2021/12/30 08:26:18;;;;;;;34.38;5.95;;;11.90;99.90;;;;;;5030631;28;20529;-74
2021/12/30 08:28:46;;;;;;;31.80;6.18;;;11.90;99.90;;;;;;5032421;28;20048;-73
2021/12/30 08:31:13;;;;;;;31.30;6.43;;;11.90;99.90;;;;;;5031941;28;20033;-74
2021/12/30 08:33:42;;;;;;;28.00;6.20;;;11.90;99.90;;;;;;5032528;28;20033;-73
2021/12/30 08:36:07;;;;;;;38.15;7.43;;;12.00;99.90;;;;;;5031050;28;20025;-73
2021/12/30 08:38:33;;;;;;;33.72;7.88;;;12.00;99.90;;;;;;5032392;28;20029;-74
2021/12/30 08:40:59;;;;;;;35.03;7.85;;;12.00;99.90;;;;;;5032355;28;20131;-73
2021/12/30 08:43:26;;;;;;;37.00;7.63;;;12.00;99.90;;;;;;5032212;28;20032;-73
2021/12/30 08:45:52;;;;;;;44.95;7.95;;;12.10;99.90;;;;;;5032175;28;20045;-73
2021/12/30 08:48:19;;;;;;;34.55;7.60;;;12.10;99.90;;;;;;5032367;28;20135;-73
2021/12/30 08:50:46;;;;;;;34.38;6.88;;;12.00;99.90;;;;;;5032310;28;20026;-73
2021/12/30 08:53:13;;;;;;;43.65;7.65;;;12.00;99.90;;;;;;5030598;28;20160;-73
2021/12/30 08:55:39;;;;;;;40.20;8.25;;;12.00;99.90;;;;;;5030793;28;20026;-73
2021/12/30 08:58:05;;;;;;;47.72;9.43;;;12.00;99.90;;;;;;5032317;28;20036;-73
2021/12/30 09:00:34;;;;;;;49.72;9.35;;;12.00;99.90;;;;;;5031910;28;20032;-73
2021/12/30 09:03:04;;;;;;;52.08;8.40;;;12.00;99.90;;;;;;5031912;28;20029;-73
2021/12/30 09:05:31;;;;;;;49.58;9.57;;;11.90;99.90;;;;;;5032119;28;20132;-73
2021/12/30 09:07:57;;;;;;;49.78;9.77;;;12.00;99.90;;;;;;5032114;28;20080;-73
2021/12/30 09:10:23;;;;;;;57.40;10.55;;;12.00;99.90;;;;;;5031918;28;20052;-73
2021/12/30 09:12:50;;;;;;;52.15;9.23;;;12.00;99.90;;;;;;5031670;28;20457;-73
2021/12/30 09:15:18;;;;;;;53.95;10.05;;;12.10;99.90;;;;;;5031851;28;20044;-74
2021/12/30 09:17:45;;;;;;;50.63;8.98;;;12.10;99.90;;;;;;5032137;28;20438;-73
2021/12/30 09:20:12;;;;;;;44.40;9.65;;;12.00;99.90;;;;;;5031736;28;20025;-74
2021/12/30 09:22:38;;;;;;;53.67;8.90;;;12.10;99.90;;;;;;5031903;28;20052;-73
2021/12/30 09:25:07;;;;;;;47.28;8.45;;;12.10;99.90;;;;;;5035339;28;20498;-73
2021/12/30 09:27:34;;;;;;;50.28;7.57;;;12.10;99.90;;;;;;5035855;28;20029;-73
2021/12/30 09:30:00;;;;;;;47.47;8.25;;;12.20;99.90;;;;;;5035345;28;20100;-73
2021/12/30 09:32:26;;;;;;;38.58;6.55;;;12.20;99.90;;;;;;5035661;28;20384;-74
2021/12/30 09:34:52;;;;;;;48.33;8.60;;;12.20;99.90;;;;;;5035669;28;20025;-73
2021/12/30 09:37:17;;;;;;;43.45;8.00;;;12.20;99.90;;;;;;5034005;28;20413;-74
2021/12/30 09:39:43;;;;;;;56.97;8.02;;;12.30;99.90;;;;;;5033826;28;20021;-73
2021/12/30 09:42:09;;;;;;;45.03;7.90;;;12.30;99.90;;;;;;5035077;28;20021;-73
2021/12/30 09:44:35;;;;;;;42.75;7.50;;;12.30;99.90;;;;;;5034800;28;20034;-73
2021/12/30 09:47:01;;;;;;;56.97;8.40;;;12.30;99.90;;;;;;5034622;28;20052;-73
2021/12/30 09:49:27;;;;;;;54.53;8.00;;;12.40;99.90;;;;;;5034723;28;20044;-73
2021/12/30 09:51:53;;;;;;;48.40;7.47;;;12.40;99.90;;;;;;5034811;28;20450;-73
2021/12/30 09:54:19;;;;;;;43.45;6.82;;;12.50;99.90;;;;;;5033589;28;20112;-74
2021/12/30 09:56:45;;;;;;;35.03;6.53;;;12.50;99.90;;;;;;5034810;28;20033;-73
2021/12/30 09:59:12;;;;;;;44.10;8.23;;;12.60;99.90;;;;;;5015200;28;20040;-74
2021/12/30 10:01:40;;;;;;;47.40;8.48;;;12.60;99.90;;;;;;5013612;28;20026;-74
2021/12/30 10:04:08;;;;;;;41.75;6.80;;;12.70;99.90;;;;;;5033349;28;20053;-74
2021/12/30 10:06:40;;;;;;;39.83;7.80;;;12.70;99.90;;;;;;5033116;28;20089;-74
2021/12/30 10:09:11;;;;;;;41.80;7.27;;;12.70;99.90;;;;;;5034541;28;20029;-74
2021/12/30 10:11:46;;;;;;;36.30;7.38;;;12.70;99.90;;;;;;5034152;28;20041;-73
2021/12/30 10:14:12;;;;;;;34.22;6.40;;;12.70;99.90;;;;;;5034377;28;20045;-74
2021/12/30 10:16:38;;;;;;;36.22;6.82;;;12.70;99.90;;;;;;5034673;28;20053;-74
2021/12/30 10:19:05;;;;;;;45.92;7.65;;;12.80;99.90;;;;;;5033582;28;20103;-73
2021/12/30 10:21:41;;;;;;;37.97;7.90;;;12.70;99.90;;;;;;5034400;28;20025;-73
2021/12/30 10:24:10;;;;;;;36.55;6.95;;;12.80;99.90;;;;;;5034831;28;20030;-74
2021/12/30 10:26:54;;;;;;;38.72;7.63;;;12.80;99.90;;;;;;5033860;28;20109;-74
2021/12/30 10:29:19;;;;;;;38.17;6.65;;;12.90;99.90;;;;;;5034587;28;20059;-74
2021/12/30 10:31:47;;;;;;;34.53;6.30;;;12.80;99.90;;;;;;5033386;28;20383;-74
2021/12/30 10:34:13;;;;;;;40.03;7.45;;;12.80;99.90;;;;;;5033968;28;20029;-73
2021/12/30 10:36:48;;;;;;;39.90;6.72;;;12.80;99.90;;;;;;5032277;28;20113;-73
2021/12/30 10:39:34;;;;;;;35.80;8.18;;;12.80;99.90;;;;;;5033750;28;20033;-74
2021/12/30 10:42:05;;;;;;;44.97;7.82;;;12.80;99.90;;;;;;5033730;28;20041;-74
2021/12/30 10:45:04;;;;;;;39.42;7.25;;;12.80;99.90;;;;;;5033844;28;20044;-74
2021/12/30 10:47:33;;;;;;;47.38;8.88;;;12.70;99.90;;;;;;5025501;28;20069;-74
2021/12/30 10:49:59;;;;;;;47.80;8.25;;;12.70;99.90;;;;;;5033959;28;20159;-74
2021/12/30 10:52:26;;;;;;;41.20;7.25;;;12.80;99.90;;;;;;5032701;28;20027;-74
2021/12/30 10:54:52;;;;;;;36.97;7.40;;;12.80;99.90;;;;;;5033830;28;20497;-73
2021/12/30 10:57:18;;;;;;;40.78;6.43;;;12.80;99.90;;;;;;5033241;28;20068;-74
2021/12/30 10:59:49;;;;;;;40.88;6.38;;;12.80;99.90;;;;;;5033372;28;20128;-74
2021/12/30 11:02:21;;;;;;;38.95;7.05;;;12.80;99.90;;;;;;5031632;28;20040;-74
2021/12/30 11:04:56;;;;;;;36.25;6.50;;;12.80;99.90;;;;;;5032041;28;20037;-74
2021/12/30 11:07:49;;;;;;;48.00;8.05;;;12.80;99.90;;;;;;5031857;28;20502;-74
2021/12/30 11:10:38;;;;;;;40.45;7.72;;;12.70;99.90;;;;;;5033239;28;20056;-74
2021/12/30 11:13:12;;;;;;;33.78;5.93;;;12.70;99.90;;;;;;5032667;28;20467;-73
2021/12/30 11:15:39;;;;;;;42.40;7.40;;;12.70;99.90;;;;;;5032515;28;20029;-73
2021/12/30 11:18:10;;;;;;;46.63;7.90;;;12.70;99.90;;;;;;5033047;28;20032;-73
2021/12/30 11:20:45;;;;;;;44.42;7.35;;;12.70;99.90;;;;;;5033461;28;20021;-73
2021/12/30 11:23:14;;;;;;;35.60;6.78;;;12.60;99.90;;;;;;5031781;28;20033;-74
2021/12/30 11:25:39;;;;;;;36.75;6.47;;;12.60;99.90;;;;;;5032863;28;20037;-74
2021/12/30 11:28:06;;;;;;;40.53;7.70;;;12.70;99.90;;;;;;5033551;28;20078;-73
2021/12/30 11:30:32;;;;;;;50.75;9.63;;;12.60;99.90;;;;;;5033022;28;20494;-75
2021/12/30 11:32:59;;;;;;;44.00;8.65;;;12.70;99.90;;;;;;5029746;28;20410;-75
2021/12/30 11:35:26;;;;;;;43.58;6.63;;;12.70;99.90;;;;;;5031111;28;20029;-75
2021/12/30 11:37:54;;;;;;;43.53;7.32;;;12.60;99.90;;;;;;5031172;28;20041;-74
2021/12/30 11:40:23;;;;;;;35.72;7.60;;;12.60;99.90;;;;;;5031273;28;20027;-75
2021/12/30 11:42:57;;;;;;;39.58;6.78;;;12.60;99.90;;;;;;5031021;28;20037;-75
2021/12/30 11:45:34;;;;;;;45.60;7.85;;;12.60;99.90;;;;;;5032302;28;20449;-75
2021/12/30 11:48:38;;;;;;;37.88;6.88;;;12.50;99.90;;;;;;5030069;28;20039;-73
2021/12/30 11:51:06;;;;;;;35.05;7.10;;;12.50;99.90;;;;;;5000478;28;20037;-73
2021/12/30 11:53:32;;;;;;;41.65;8.40;;;12.40;99.90;;;;;;5030872;28;20032;-74
2021/12/30 11:56:07;;;;;;;50.50;7.80;;;12.40;99.90;;;;;;5032482;28;20041;-73
2021/12/30 11:58:42;;;;;;;44.53;8.23;;;12.40;99.90;;;;;;5032374;28;20093;-73
2021/12/30 12:01:11;;;;;;;42.08;8.02;;;12.30;99.90;;;;;;5017260;28;20040;-73
2021/12/30 12:03:44;;;;;;;42.55;7.22;;;12.30;99.90;;;;;;5031154;28;20044;-73
2021/12/30 12:06:28;;;;;;;37.92;6.82;;;12.30;99.90;;;;;;5030798;28;20132;-73
2021/12/30 12:08:59;;;;;;;43.55;7.15;;;12.30;99.90;;;;;;5032071;28;20029;-73
2021/12/30 12:11:26;;;;;;;40.15;7.18;;;12.30;99.90;;;;;;5032198;28;20022;-73
2021/12/30 12:13:54;;;;;;;37.58;7.70;;;12.30;99.90;;;;;;5030502;28;20045;-73
2021/12/30 12:16:50;;;;;;;38.70;7.03;;;12.20;99.90;;;;;;5013695;28;20100;-73
2021/12/30 12:19:19;;;;;;;34.10;6.60;;;12.20;99.90;;;;;;5022073;28;20445;-74
2021/12/30 12:21:52;;;;;;;33.45;6.70;;;12.20;99.90;;;;;;5031920;28;20021;-74
2021/12/30 12:24:21;;;;;;;28.00;6.13;;;12.30;99.90;;;;;;5032052;28;20244;-74
2021/12/30 12:26:48;;;;;;;33.72;6.13;;;12.30;99.90;;;;;;5032624;28;20092;-74
2021/12/30 12:29:34;;;;;;;34.22;6.13;;;12.30;99.90;;;;;;5032443;28;20451;-74
2021/12/30 12:32:10;;;;;;;38.75;7.05;;;12.30;99.90;;;;;;5032069;28;20078;-74
2021/12/30 12:34:53;;;;;;;36.35;7.38;;;12.30;99.90;;;;;;5032263;28;20136;-74
2021/12/30 12:37:33;;;;;;;33.88;5.80;;;12.30;99.90;;;;;;5032275;28;20030;-74
2021/12/30 12:40:06;;;;;;;45.55;7.68;;;12.30;99.90;;;;;;5028347;28;20057;-73
2021/12/30 12:42:52;;;;;;;32.70;6.20;;;12.30;99.90;;;;;;5020564;28;20474;-74